Time,TemperatureF,DewpointF,PressureIn,WindDirection,WindDirectionDegrees,WindSpeedMPH,WindSpeedGustMPH,Humidity,HourlyPrecipIn,Conditions,Clouds,dailyrainin,SoftwareType,DateUTC
2013-08-10 07:16:00,64.0,62.2,30.05,WNW,290,0.0,0.0,94,0.00,,,0.00,Wunderground v.1.15,2013-08-10 12:16:00,
2013-08-10 07:21:00,64.3,62.5,30.05,WNW,290,0.0,0.0,94,0.00,,,0.00,Wunderground v.1.15,2013-08-10 12:21:00,
2013-08-10 07:26:00,64.7,62.9,30.06,WNW,300,0.0,2.0,94,0.00,,,0.00,Wunderground v.1.15,2013-08-10 12:26:00,
2013-08-10 07:31:00,65.1,63.3,30.06,WNW,296,0.0,2.0,94,0.00,,,0.00,Wunderground v.1.15,2013-08-10 12:31:00,
2013-08-10 07:36:00,65.5,63.7,30.06,WNW,295,0.0,2.0,94,0.00,,,0.00,Wunderground v.1.15,2013-08-10 12:36:00,
2013-08-10 07:41:00,65.9,64.1,30.06,WNW,288,0.0,2.0,94,0.00,,,0.00,Wunderground v.1.15,2013-08-10 12:41:00,
2013-08-10 07:51:00,66.8,65.0,30.06,WNW,284,1.0,1.0,94,0.00,,,0.00,Wunderground v.1.15,2013-08-10 12:51:00,
2013-08-10 08:01:00,67.7,65.3,30.06,WNW,283,0.0,0.0,92,0.00,,,0.00,Wunderground v.1.15,2013-08-10 13:01:00,
2013-08-10 08:11:00,68.7,65.6,30.06,NNW,340,1.0,1.0,90,0.00,,,0.00,Wunderground v.1.15,2013-08-10 13:11:00,
2013-08-10 08:21:00,69.5,65.8,30.06,NNW,340,2.0,3.0,88,0.00,,,0.00,Wunderground v.1.15,2013-08-10 13:21:00,
2013-08-10 08:26:00,69.8,65.8,30.06,North,350,2.0,3.0,87,0.00,,,0.00,Wunderground v.1.15,2013-08-10 13:26:00,
2013-08-10 08:36:00,70.4,66.0,30.06,North,5,2.0,2.0,86,0.00,,,0.00,Wunderground v.1.15,2013-08-10 13:36:00,
2013-08-10 08:46:00,71.0,66.6,30.06,NNE,21,2.0,3.0,86,0.00,,,0.00,Wunderground v.1.15,2013-08-10 13:46:00,
2013-08-10 08:56:00,72.0,66.9,30.06,North,5,2.0,2.0,84,0.00,,,0.00,Wunderground v.1.15,2013-08-10 13:56:00,
2013-08-10 09:06:00,72.5,67.4,30.07,WSW,254,2.0,2.0,84,0.00,,,0.00,Wunderground v.1.15,2013-08-10 14:06:00,
2013-08-10 09:11:00,72.9,67.4,30.06,NNE,29,1.0,1.0,83,0.00,,,0.00,Wunderground v.1.15,2013-08-10 14:11:00,
2013-08-10 09:21:00,73.6,67.8,30.06,NNE,12,1.0,1.0,82,0.00,,,0.00,Wunderground v.1.15,2013-08-10 14:21:00,
2013-08-10 09:31:00,74.5,67.6,30.06,NNE,22,1.0,2.0,79,0.00,,,0.00,Wunderground v.1.15,2013-08-10 14:31:00,
2013-08-10 09:41:00,75.0,66.9,30.07,NNE,26,1.0,1.0,76,0.00,,,0.00,Wunderground v.1.15,2013-08-10 14:41:00,
2013-08-10 09:46:00,75.3,68.3,30.07,North,355,1.0,1.0,79,0.00,,,0.00,Wunderground v.1.15,2013-08-10 14:46:00,
2013-08-10 09:56:00,75.9,67.0,30.08,NNE,30,1.0,5.0,74,0.00,,,0.00,Wunderground v.1.15,2013-08-10 14:56:00,
2013-08-10 10:06:00,76.4,68.3,30.08,ESE,103,1.0,3.0,76,0.00,,,0.00,Wunderground v.1.15,2013-08-10 15:06:00,
2013-08-10 10:11:00,76.9,68.4,30.08,ENE,59,1.0,1.0,75,0.00,,,0.00,Wunderground v.1.15,2013-08-10 15:11:00,
2013-08-10 10:21:00,77.5,68.6,30.08,NNE,27,1.0,3.0,74,0.00,,,0.00,Wunderground v.1.15,2013-08-10 15:21:00,
2013-08-10 10:31:00,77.3,67.2,30.08,West,281,1.0,1.0,71,0.00,,,0.00,Wunderground v.1.15,2013-08-10 15:31:00,
2013-08-10 10:36:00,77.1,67.4,30.08,West,280,1.0,2.0,72,0.00,,,0.00,Wunderground v.1.15,2013-08-10 15:36:00,
2013-08-10 10:46:00,77.1,68.6,30.08,NNW,327,2.0,2.0,75,0.00,,,0.00,Wunderground v.1.15,2013-08-10 15:46:00,
2013-08-10 10:51:00,77.5,67.8,30.09,North,350,2.0,2.0,72,0.00,,,0.00,Wunderground v.1.15,2013-08-10 15:51:00,
2013-08-10 11:01:00,77.9,68.1,30.08,West,260,2.0,2.0,72,0.00,,,0.00,Wunderground v.1.15,2013-08-10 16:01:00,
2013-08-10 11:11:00,77.7,65.9,30.08,North,355,2.0,2.0,67,0.00,,,0.00,Wunderground v.1.15,2013-08-10 16:11:00,
2013-08-10 11:16:00,77.9,67.3,30.08,West,269,1.0,5.0,70,0.00,,,0.00,Wunderground v.1.15,2013-08-10 16:16:00,
2013-08-10 11:26:00,79.0,66.7,30.08,North,355,1.0,2.0,66,0.00,,,0.00,Wunderground v.1.15,2013-08-10 16:26:00,
2013-08-10 11:31:00,79.3,64.2,30.08,WNW,284,1.0,2.0,60,0.00,,,0.00,Wunderground v.1.15,2013-08-10 16:31:00,
2013-08-10 11:41:00,79.5,65.3,30.08,WNW,286,2.0,2.0,62,0.00,,,0.00,Wunderground v.1.15,2013-08-10 16:41:00,
2013-08-10 11:51:00,79.7,66.9,30.08,West,273,2.0,2.0,65,0.00,,,0.00,Wunderground v.1.15,2013-08-10 16:51:00,
2013-08-10 11:56:00,79.5,65.3,30.08,NNW,328,1.0,2.0,62,0.00,,,0.00,Wunderground v.1.15,2013-08-10 16:56:00,
2013-08-10 12:06:00,78.9,66.6,30.08,West,262,1.0,1.0,66,0.00,,,0.00,Wunderground v.1.15,2013-08-10 17:06:00,
2013-08-10 12:16:00,79.4,63.8,30.07,WSW,257,2.0,2.0,59,0.00,,,0.00,Wunderground v.1.15,2013-08-10 17:16:00,
2013-08-10 12:21:00,79.5,63.9,30.07,NNW,329,2.0,2.0,59,0.00,,,0.00,Wunderground v.1.15,2013-08-10 17:21:00,
2013-08-10 12:31:00,79.8,63.7,30.07,WNW,285,1.0,2.0,58,0.00,,,0.00,Wunderground v.1.15,2013-08-10 17:31:00,
2013-08-10 12:41:00,79.1,63.5,30.07,North,349,2.0,2.0,59,0.00,,,0.00,Wunderground v.1.15,2013-08-10 17:41:00,
2013-08-10 12:51:00,79.3,63.7,30.07,North,355,2.0,3.0,59,0.00,,,0.00,Wunderground v.1.15,2013-08-10 17:51:00,
2013-08-10 13:01:00,80.2,63.6,30.07,NNW,328,3.0,3.0,57,0.00,,,0.00,Wunderground v.1.15,2013-08-10 18:01:00,
2013-08-10 13:06:00,80.3,65.1,30.07,NE,40,3.0,4.0,60,0.00,,,0.00,Wunderground v.1.15,2013-08-10 18:06:00,
2013-08-10 13:16:00,80.7,65.5,30.07,NNW,341,4.0,4.0,60,0.00,,,0.00,Wunderground v.1.15,2013-08-10 18:16:00,
2013-08-10 13:26:00,79.9,64.8,30.07,WNW,298,2.0,3.0,60,0.00,,,0.00,Wunderground v.1.15,2013-08-10 18:26:00,
2013-08-10 13:31:00,80.1,64.0,30.07,North,355,2.0,3.0,58,0.00,,,0.00,Wunderground v.1.15,2013-08-10 18:31:00,
2013-08-10 13:41:00,80.2,66.5,30.07,NNW,346,3.0,3.0,63,0.00,,,0.00,Wunderground v.1.15,2013-08-10 18:41:00,
2013-08-10 13:46:00,79.8,64.7,30.07,West,281,2.0,3.0,60,0.00,,,0.00,Wunderground v.1.15,2013-08-10 18:46:00,
2013-08-10 13:56:00,80.0,65.8,30.07,NNW,344,2.0,3.0,62,0.00,,,0.00,Wunderground v.1.15,2013-08-10 18:56:00,
2013-08-10 14:01:00,80.3,62.7,30.07,NNW,338,3.0,3.0,55,0.00,,,0.00,Wunderground v.1.15,2013-08-10 19:01:00,
2013-08-10 14:11:00,80.5,63.4,30.06,WSW,253,2.0,3.0,56,0.00,,,0.00,Wunderground v.1.15,2013-08-10 19:11:00,
2013-08-10 14:16:00,80.1,65.0,30.06,North,360,2.0,3.0,60,0.00,,,0.00,Wunderground v.1.15,2013-08-10 19:16:00,
2013-08-10 14:26:00,80.6,64.5,30.06,WSW,238,2.0,2.0,58,0.00,,,0.00,Wunderground v.1.15,2013-08-10 19:26:00,
2013-08-10 14:36:00,80.8,65.1,30.06,NW,317,3.0,3.0,59,0.00,,,0.00,Wunderground v.1.15,2013-08-10 19:36:00,
2013-08-10 14:46:00,81.1,64.9,30.06,North,9,2.0,5.0,58,0.00,,,0.00,Wunderground v.1.15,2013-08-10 19:46:00,
2013-08-10 14:56:00,81.2,63.5,30.06,WNW,300,3.0,5.0,55,0.00,,,0.00,Wunderground v.1.15,2013-08-10 19:56:00,
2013-08-10 15:01:00,81.1,64.9,30.05,WSW,249,3.0,5.0,58,0.00,,,0.00,Wunderground v.1.15,2013-08-10 20:01:00,
2013-08-10 15:06:00,81.0,62.8,30.05,West,275,3.0,5.0,54,0.00,,,0.00,Wunderground v.1.15,2013-08-10 20:06:00,
2013-08-10 15:16:00,80.5,63.4,30.05,WNW,282,2.0,3.0,56,0.00,,,0.00,Wunderground v.1.15,2013-08-10 20:16:00,
2013-08-10 15:26:00,81.2,63.5,30.05,NNW,348,2.0,3.0,55,0.00,,,0.00,Wunderground v.1.15,2013-08-10 20:26:00,
2013-08-10 15:31:00,81.5,63.3,30.05,NW,306,2.0,3.0,54,0.00,,,0.00,Wunderground v.1.15,2013-08-10 20:31:00,
2013-08-10 15:41:00,81.8,61.9,30.05,SSW,195,2.0,3.0,51,0.00,,,0.00,Wunderground v.1.15,2013-08-10 20:41:00,
2013-08-10 15:51:00,81.3,62.5,30.05,West,277,3.0,3.0,53,0.00,,,0.00,Wunderground v.1.15,2013-08-10 20:51:00,
2013-08-10 16:01:00,81.7,64.5,30.04,North,355,2.0,2.0,56,0.00,,,0.00,Wunderground v.1.15,2013-08-10 21:01:00,
2013-08-10 16:06:00,82.0,64.2,30.04,NNW,329,2.0,2.0,55,0.00,,,0.00,Wunderground v.1.15,2013-08-10 21:06:00,
2013-08-10 16:16:00,82.1,62.7,30.04,SW,217,1.0,5.0,52,0.00,,,0.00,Wunderground v.1.15,2013-08-10 21:16:00,
2013-08-10 16:21:00,81.7,60.7,30.04,WSW,246,2.0,3.0,49,0.00,,,0.00,Wunderground v.1.15,2013-08-10 21:21:00,